sensor_id;sensor_type;location;lat;lon;timestamp;pressure;altitude;pressure_sealevel;temperature;humidity
73101;BME280;61288;53.446;-2.266;2023-04-07T00:00:51;101724.72;;;3.83;95.58
73101;BME280;61288;53.446;-2.266;2023-04-07T00:03:16;101723.00;;;3.81;94.75
73101;BME280;61288;53.446;-2.266;2023-04-07T00:05:42;101728.97;;;3.80;95.31
73101;BME280;61288;53.446;-2.266;2023-04-07T00:08:07;101721.25;;;3.73;94.35
73101;BME280;61288;53.446;-2.266;2023-04-07T00:10:33;101719.56;;;3.68;93.85
73101;BME280;61288;53.446;-2.266;2023-04-07T00:12:58;101716.97;;;3.65;94.38
73101;BME280;61288;53.446;-2.266;2023-04-07T00:15:24;101717.78;;;3.60;93.88
73101;BME280;61288;53.446;-2.266;2023-04-07T00:17:50;101716.06;;;3.52;93.21
73101;BME280;61288;53.446;-2.266;2023-04-07T00:20:16;101713.47;;;3.49;94.58
73101;BME280;61288;53.446;-2.266;2023-04-07T00:22:44;101721.16;;;3.49;95.47
73101;BME280;61288;53.446;-2.266;2023-04-07T00:25:10;101720.25;;;3.43;94.71
73101;BME280;61288;53.446;-2.266;2023-04-07T00:27:35;101715.13;;;3.36;94.84
73101;BME280;61288;53.446;-2.266;2023-04-07T00:30:02;101714.19;;;3.30;95.08
73101;BME280;61288;53.446;-2.266;2023-04-07T00:32:28;101719.28;;;3.24;94.35
73101;BME280;61288;53.446;-2.266;2023-04-07T00:34:53;101716.69;;;3.18;94.65
73101;BME280;61288;53.446;-2.266;2023-04-07T00:37:19;101717.53;;;3.17;94.86
73101;BME280;61288;53.446;-2.266;2023-04-07T00:39:44;101718.34;;;3.08;93.71
73101;BME280;61288;53.446;-2.266;2023-04-07T00:42:11;101728.53;;;3.02;94.94
73101;BME280;61288;53.446;-2.266;2023-04-07T00:44:36;101731.91;;;2.98;95.01
73101;BME280;61288;53.446;-2.266;2023-04-07T00:47:02;101729.38;;;2.98;95.44
73101;BME280;61288;53.446;-2.266;2023-04-07T00:49:27;101731.91;;;2.96;96.36
73101;BME280;61288;53.446;-2.266;2023-04-07T00:51:54;101737.00;;;2.93;96.04
73101;BME280;61288;53.446;-2.266;2023-04-07T00:54:24;101733.56;;;2.91;95.50
73101;BME280;61288;53.446;-2.266;2023-04-07T00:56:51;101732.72;;;2.91;96.67
73101;BME280;61288;53.446;-2.266;2023-04-07T00:59:17;101728.41;;;2.83;95.54
73101;BME280;61288;53.446;-2.266;2023-04-07T01:04:32;101724.81;;;2.64;95.08
73101;BME280;61288;53.446;-2.266;2023-04-07T01:07:10;101728.19;;;2.58;96.01
73101;BME280;61288;53.446;-2.266;2023-04-07T01:09:45;101729.03;;;2.57;96.42
73101;BME280;61288;53.446;-2.266;2023-04-07T01:12:35;101737.56;;;2.56;96.65
73101;BME280;61288;53.446;-2.266;2023-04-07T01:15:08;101742.66;;;2.56;97.04
73101;BME280;61288;53.446;-2.266;2023-04-07T01:17:37;101746.00;;;2.51;97.03
73101;BME280;61288;53.446;-2.266;2023-04-07T01:20:06;101746.03;;;2.52;98.62
73101;BME280;61288;53.446;-2.266;2023-04-07T01:22:46;101754.63;;;2.57;99.87
73101;BME280;61288;53.446;-2.266;2023-04-07T01:31:24;101723.94;;;2.60;99.36
73101;BME280;61288;53.446;-2.266;2023-04-07T01:33:54;101721.44;;;2.65;99.91
73101;BME280;61288;53.446;-2.266;2023-04-07T01:36:21;101737.53;;;2.58;97.71
73101;BME280;61288;53.446;-2.266;2023-04-07T01:38:47;101727.22;;;2.45;97.28
73101;BME280;61288;53.446;-2.266;2023-04-07T01:41:14;101727.19;;;2.44;98.02
73101;BME280;61288;53.446;-2.266;2023-04-07T01:43:41;101726.31;;;2.40;97.60
73101;BME280;61288;53.446;-2.266;2023-04-07T01:46:07;101732.19;;;2.31;96.73
73101;BME280;61288;53.446;-2.266;2023-04-07T01:48:34;101734.66;;;2.24;96.79
73101;BME280;61288;53.446;-2.266;2023-04-07T01:51:03;101742.28;;;2.19;97.62
73101;BME280;61288;53.446;-2.266;2023-04-07T01:53:30;101746.56;;;2.22;98.85
73101;BME280;61288;53.446;-2.266;2023-04-07T01:55:56;101738.06;;;2.21;98.83
73101;BME280;61288;53.446;-2.266;2023-04-07T01:58:22;101743.22;;;2.29;100.00
73101;BME280;61288;53.446;-2.266;2023-04-07T02:00:50;101753.47;;;2.30;100.00
73101;BME280;61288;53.446;-2.266;2023-04-07T02:03:30;101754.28;;;2.28;100.00
73101;BME280;61288;53.446;-2.266;2023-04-07T02:06:05;101761.06;;;2.23;99.49
73101;BME280;61288;53.446;-2.266;2023-04-07T02:08:36;101751.72;;;2.23;99.96
73101;BME280;61288;53.446;-2.266;2023-04-07T02:11:04;101748.25;;;2.20;100.00
73101;BME280;61288;53.446;-2.266;2023-04-07T02:13:33;101740.56;;;2.18;100.00
73101;BME280;61288;53.446;-2.266;2023-04-07T02:16:00;101746.53;;;2.17;100.00
73101;BME280;61288;53.446;-2.266;2023-04-07T02:18:29;101755.88;;;2.16;99.96
73101;BME280;61288;53.446;-2.266;2023-04-07T02:20:57;101752.50;;;2.16;100.00
73101;BME280;61288;53.446;-2.266;2023-04-07T02:23:24;101752.41;;;2.13;100.00
73101;BME280;61288;53.446;-2.266;2023-04-07T02:25:49;101754.97;;;2.11;100.00
73101;BME280;61288;53.446;-2.266;2023-04-07T02:28:15;101733.66;;;2.09;100.00
73101;BME280;61288;53.446;-2.266;2023-04-07T02:30:40;101728.53;;;2.11;100.00
73101;BME280;61288;53.446;-2.266;2023-04-07T02:33:06;101728.41;;;1.98;98.44
73101;BME280;61288;53.446;-2.266;2023-04-07T02:35:31;101732.53;;;1.87;98.41
73101;BME280;61288;53.446;-2.266;2023-04-07T02:37:57;101731.56;;;1.79;98.44
73101;BME280;61288;53.446;-2.266;2023-04-07T02:40:22;101728.06;;;1.70;98.26
73101;BME280;61288;53.446;-2.266;2023-04-07T02:42:48;101725.47;;;1.66;98.52
73101;BME280;61288;53.446;-2.266;2023-04-07T02:45:17;101739.00;;;1.62;98.52
73101;BME280;61288;53.446;-2.266;2023-04-07T02:47:42;101737.38;;;1.65;100.00
73101;BME280;61288;53.446;-2.266;2023-04-07T02:50:08;101738.28;;;1.69;100.00
73101;BME280;61288;53.446;-2.266;2023-04-07T02:52:34;101736.56;;;1.69;100.00
73101;BME280;61288;53.446;-2.266;2023-04-07T02:55:02;101731.50;;;1.71;100.00
73101;BME280;61288;53.446;-2.266;2023-04-07T02:57:28;101739.22;;;1.79;100.00
73101;BME280;61288;53.446;-2.266;2023-04-07T02:59:53;101733.28;;;1.80;100.00
73101;BME280;61288;53.446;-2.266;2023-04-07T03:02:21;101734.09;;;1.74;100.00
73101;BME280;61288;53.446;-2.266;2023-04-07T03:04:49;101733.94;;;1.63;98.87
73101;BME280;61288;53.446;-2.266;2023-04-07T03:07:15;101731.31;;;1.58;99.34
73101;BME280;61288;53.446;-2.266;2023-04-07T03:09:40;101739.78;;;1.54;98.96
73101;BME280;61288;53.446;-2.266;2023-04-07T03:12:06;101737.09;;;1.47;98.51
73101;BME280;61288;53.446;-2.266;2023-04-07T03:14:31;101745.59;;;1.44;99.20
73101;BME280;61288;53.446;-2.266;2023-04-07T03:16:57;101749.00;;;1.43;99.28
73101;BME280;61288;53.446;-2.266;2023-04-07T03:19:22;101746.47;;;1.46;100.00
73101;BME280;61288;53.446;-2.266;2023-04-07T03:21:47;101750.75;;;1.47;100.00
73101;BME280;61288;53.446;-2.266;2023-04-07T03:24:13;101749.88;;;1.47;100.00
73101;BME280;61288;53.446;-2.266;2023-04-07T03:26:39;101746.31;;;1.35;99.70
73101;BME280;61288;53.446;-2.266;2023-04-07T03:29:04;101768.38;;;1.30;99.44
73101;BME280;61288;53.446;-2.266;2023-04-07T03:31:30;101767.50;;;1.29;100.00
73101;BME280;61288;53.446;-2.266;2023-04-07T03:33:55;101767.41;;;1.23;99.69
73101;BME280;61288;53.446;-2.266;2023-04-07T03:36:21;101769.03;;;1.18;99.39
73101;BME280;61288;53.446;-2.266;2023-04-07T03:38:46;101766.41;;;1.12;98.81
73101;BME280;61288;53.446;-2.266;2023-04-07T03:41:12;101779.03;;;1.04;99.08
73101;BME280;61288;53.446;-2.266;2023-04-07T03:43:38;101777.31;;;1.03;100.00
73101;BME280;61288;53.446;-2.266;2023-04-07T03:46:03;101781.69;;;1.10;100.00
73101;BME280;61288;53.446;-2.266;2023-04-07T03:48:29;101777.34;;;1.05;100.00
73101;BME280;61288;53.446;-2.266;2023-04-07T03:50:55;101784.84;;;0.95;99.07
73101;BME280;61288;53.446;-2.266;2023-04-07T03:53:20;101786.53;;;0.95;99.59
73101;BME280;61288;53.446;-2.266;2023-04-07T03:55:46;101773.81;;;0.98;100.00
73101;BME280;61288;53.446;-2.266;2023-04-07T03:58:11;101775.69;;;1.08;100.00
73101;BME280;61288;53.446;-2.266;2023-04-07T04:00:37;101781.72;;;1.13;100.00
73101;BME280;61288;53.446;-2.266;2023-04-07T04:03:03;101772.25;;;1.06;100.00
73101;BME280;61288;53.446;-2.266;2023-04-07T04:05:28;101774.66;;;0.97;100.00
73101;BME280;61288;53.446;-2.266;2023-04-07T04:07:54;101787.28;;;0.88;99.34
73101;BME280;61288;53.446;-2.266;2023-04-07T04:10:20;101785.44;;;0.80;99.76
73101;BME280;61288;53.446;-2.266;2023-04-07T04:12:48;101777.72;;;0.77;100.00
73101;BME280;61288;53.446;-2.266;2023-04-07T04:15:14;101784.53;;;0.77;100.00
73101;BME280;61288;53.446;-2.266;2023-04-07T04:17:40;101781.09;;;0.76;100.00
73101;BME280;61288;53.446;-2.266;2023-04-07T04:20:07;101789.63;;;0.77;100.00
73101;BME280;61288;53.446;-2.266;2023-04-07T04:22:33;101792.09;;;0.72;99.74
73101;BME280;61288;53.446;-2.266;2023-04-07T04:24:59;101798.03;;;0.69;100.00
73101;BME280;61288;53.446;-2.266;2023-04-07T04:27:24;101797.88;;;0.63;100.00
73101;BME280;61288;53.446;-2.266;2023-04-07T04:29:50;101798.59;;;0.54;99.52
73101;BME280;61288;53.446;-2.266;2023-04-07T04:32:16;101805.31;;;0.51;100.00
73101;BME280;61288;53.446;-2.266;2023-04-07T04:34:42;101802.72;;;0.49;99.67
73101;BME280;61288;53.446;-2.266;2023-04-07T04:37:08;101796.63;;;0.41;99.36
73101;BME280;61288;53.446;-2.266;2023-04-07T04:39:33;101791.47;;;0.38;99.87
73101;BME280;61288;53.446;-2.266;2023-04-07T04:41:59;101800.78;;;0.36;100.00
73101;BME280;61288;53.446;-2.266;2023-04-07T04:44:26;101812.03;;;0.47;100.00
73101;BME280;61288;53.446;-2.266;2023-04-07T04:46:51;101801.09;;;0.53;100.00
73101;BME280;61288;53.446;-2.266;2023-04-07T04:49:18;101812.03;;;0.47;100.00
73101;BME280;61288;53.446;-2.266;2023-04-07T04:51:44;101813.56;;;0.37;100.00
73101;BME280;61288;53.446;-2.266;2023-04-07T04:54:10;101825.28;;;0.29;99.62
73101;BME280;61288;53.446;-2.266;2023-04-07T04:56:35;101825.22;;;0.24;100.00
73101;BME280;61288;53.446;-2.266;2023-04-07T04:59:04;101827.72;;;0.23;100.00
73101;BME280;61288;53.446;-2.266;2023-04-07T05:01:30;101825.94;;;0.19;99.66
73101;BME280;61288;53.446;-2.266;2023-04-07T05:03:56;101829.31;;;0.18;100.00
73101;BME280;61288;53.446;-2.266;2023-04-07T05:06:21;101834.44;;;0.19;100.00
73101;BME280;61288;53.446;-2.266;2023-04-07T05:08:47;101842.00;;;0.16;99.81
73101;BME280;61288;53.446;-2.266;2023-04-07T05:11:12;101833.47;;;0.14;100.00
73101;BME280;61288;53.446;-2.266;2023-04-07T05:13:37;101837.81;;;0.18;100.00
73101;BME280;61288;53.446;-2.266;2023-04-07T05:16:03;101839.38;;;0.11;99.93
73101;BME280;61288;53.446;-2.266;2023-04-07T05:18:29;101837.63;;;0.09;100.00
73101;BME280;61288;53.446;-2.266;2023-04-07T05:20:55;101835.84;;;0.05;99.85
73101;BME280;61288;53.446;-2.266;2023-04-07T05:23:20;101835.75;;;0.00;99.86
73101;BME280;61288;53.446;-2.266;2023-04-07T05:25:46;101838.25;;;-0.02;100.00
73101;BME280;61288;53.446;-2.266;2023-04-07T05:28:11;101843.31;;;-0.03;99.49
73101;BME280;61288;53.446;-2.266;2023-04-07T05:30:37;101837.31;;;-0.05;99.68
73101;BME280;61288;53.446;-2.266;2023-04-07T05:33:02;101849.16;;;-0.07;99.77
73101;BME280;61288;53.446;-2.266;2023-04-07T05:35:29;101845.78;;;-0.06;99.77
73101;BME280;61288;53.446;-2.266;2023-04-07T05:37:54;101854.31;;;-0.04;100.00
73101;BME280;61288;53.446;-2.266;2023-04-07T05:40:20;101854.38;;;-0.01;100.00
73101;BME280;61288;53.446;-2.266;2023-04-07T05:42:45;101862.13;;;0.02;100.00
73101;BME280;61288;53.446;-2.266;2023-04-07T05:45:11;101858.00;;;0.09;100.00
73101;BME280;61288;53.446;-2.266;2023-04-07T05:47:37;101865.72;;;0.12;100.00
73101;BME280;61288;53.446;-2.266;2023-04-07T05:50:02;101868.19;;;0.09;100.00
73101;BME280;61288;53.446;-2.266;2023-04-07T05:52:28;101875.72;;;0.03;100.00
73101;BME280;61288;53.446;-2.266;2023-04-07T05:54:54;101878.19;;;-0.01;100.00
73101;BME280;61288;53.446;-2.266;2023-04-07T05:57:20;101881.63;;;0.00;100.00
73101;BME280;61288;53.446;-2.266;2023-04-07T05:59:47;101884.25;;;0.03;100.00
73101;BME280;61288;53.446;-2.266;2023-04-07T06:02:12;101885.91;;;0.03;100.00
73101;BME280;61288;53.446;-2.266;2023-04-07T06:04:38;101877.50;;;0.07;99.96
73101;BME280;61288;53.446;-2.266;2023-04-07T06:07:04;101881.81;;;0.09;99.99
73101;BME280;61288;53.446;-2.266;2023-04-07T06:09:29;101887.81;;;0.11;99.93
73101;BME280;61288;53.446;-2.266;2023-04-07T06:11:58;101893.94;;;0.20;100.00
73101;BME280;61288;53.446;-2.266;2023-04-07T06:14:24;101895.81;;;0.28;100.00
73101;BME280;61288;53.446;-2.266;2023-04-07T06:16:49;101899.50;;;0.41;100.00
73101;BME280;61288;53.446;-2.266;2023-04-07T06:19:15;101900.44;;;0.47;100.00
73101;BME280;61288;53.446;-2.266;2023-04-07T06:21:41;101905.72;;;0.54;100.00
73101;BME280;61288;53.446;-2.266;2023-04-07T06:24:06;101905.00;;;0.63;100.00
73101;BME280;61288;53.446;-2.266;2023-04-07T06:26:32;101907.72;;;0.71;100.00
73101;BME280;61288;53.446;-2.266;2023-04-07T06:28:58;101908.00;;;0.85;100.00
73101;BME280;61288;53.446;-2.266;2023-04-07T06:31:24;101906.66;;;1.03;99.77
73101;BME280;61288;53.446;-2.266;2023-04-07T06:33:50;101902.09;;;1.35;99.92
73101;BME280;61288;53.446;-2.266;2023-04-07T06:36:16;101910.31;;;2.26;98.64
73101;BME280;61288;53.446;-2.266;2023-04-07T06:38:42;101905.44;;;3.25;93.53
73101;BME280;61288;53.446;-2.266;2023-04-07T06:41:07;101906.03;;;3.98;89.22
73101;BME280;61288;53.446;-2.266;2023-04-07T06:43:37;101910.63;;;4.68;85.18
73101;BME280;61288;53.446;-2.266;2023-04-07T06:46:02;101909.94;;;5.43;82.56
73101;BME280;61288;53.446;-2.266;2023-04-07T06:48:28;101911.63;;;6.14;79.99
73101;BME280;61288;53.446;-2.266;2023-04-07T06:50:53;101914.91;;;6.63;76.49
73101;BME280;61288;53.446;-2.266;2023-04-07T06:53:20;101910.66;;;6.48;76.54
73101;BME280;61288;53.446;-2.266;2023-04-07T06:55:46;101922.78;;;6.10;76.34
73101;BME280;61288;53.446;-2.266;2023-04-07T06:58:11;101920.22;;;5.82;78.93
73101;BME280;61288;53.446;-2.266;2023-04-07T07:00:37;101931.38;;;5.55;78.82
73101;BME280;61288;53.446;-2.266;2023-04-07T07:03:03;101932.16;;;5.09;78.53
73101;BME280;61288;53.446;-2.266;2023-04-07T07:05:29;101923.50;;;4.77;81.79
73101;BME280;61288;53.446;-2.266;2023-04-07T07:07:55;101927.63;;;4.41;83.54
73101;BME280;61288;53.446;-2.266;2023-04-07T07:10:21;101932.78;;;4.42;84.15
73101;BME280;61288;53.446;-2.266;2023-04-07T07:12:50;101935.31;;;4.33;84.01
73101;BME280;61288;53.446;-2.266;2023-04-07T07:15:16;101930.94;;;4.19;85.03
73101;BME280;61288;53.446;-2.266;2023-04-07T07:17:42;101936.81;;;4.01;86.50
73101;BME280;61288;53.446;-2.266;2023-04-07T07:20:08;101937.63;;;3.94;87.21
73101;BME280;61288;53.446;-2.266;2023-04-07T07:22:33;101937.59;;;3.91;88.48
73101;BME280;61288;53.446;-2.266;2023-04-07T07:25:00;101947.03;;;3.97;88.11
73101;BME280;61288;53.446;-2.266;2023-04-07T07:27:25;101941.88;;;3.94;88.05
73101;BME280;61288;53.446;-2.266;2023-04-07T07:29:51;101947.81;;;3.86;89.49
73101;BME280;61288;53.446;-2.266;2023-04-07T07:32:16;101950.38;;;3.82;90.12
73101;BME280;61288;53.446;-2.266;2023-04-07T07:34:42;101944.34;;;3.80;90.12
73101;BME280;61288;53.446;-2.266;2023-04-07T07:37:07;101954.56;;;3.73;91.81
73101;BME280;61288;53.446;-2.266;2023-04-07T07:39:33;101952.25;;;4.08;90.97
73101;BME280;61288;53.446;-2.266;2023-04-07T07:41:58;101961.00;;;4.41;91.40
73101;BME280;61288;53.446;-2.266;2023-04-07T07:44:24;101958.59;;;4.70;91.30
73101;BME280;61288;53.446;-2.266;2023-04-07T07:46:49;101960.28;;;4.73;88.57
73101;BME280;61288;53.446;-2.266;2023-04-07T07:49:15;101956.88;;;4.71;88.76
73101;BME280;61288;53.446;-2.266;2023-04-07T07:51:41;101957.78;;;4.87;88.43
73101;BME280;61288;53.446;-2.266;2023-04-07T07:54:07;101965.50;;;4.90;87.83
73101;BME280;61288;53.446;-2.266;2023-04-07T07:56:34;101957.75;;;4.74;89.80
73101;BME280;61288;53.446;-2.266;2023-04-07T07:58:59;101961.16;;;4.75;89.03
73101;BME280;61288;53.446;-2.266;2023-04-07T08:01:25;101952.59;;;4.74;88.97
73101;BME280;61288;53.446;-2.266;2023-04-07T08:03:50;101955.19;;;4.79;89.60
73101;BME280;61288;53.446;-2.266;2023-04-07T08:06:16;101954.34;;;4.85;89.37
73101;BME280;61288;53.446;-2.266;2023-04-07T08:08:42;101957.78;;;4.84;89.89
73101;BME280;61288;53.446;-2.266;2023-04-07T08:11:07;101952.66;;;4.85;90.49
73101;BME280;61288;53.446;-2.266;2023-04-07T08:13:33;101962.94;;;4.96;90.01
73101;BME280;61288;53.446;-2.266;2023-04-07T08:15:58;101953.59;;;5.18;90.18
73101;BME280;61288;53.446;-2.266;2023-04-07T08:18:24;101955.38;;;5.63;89.66
73101;BME280;61288;53.446;-2.266;2023-04-07T08:20:49;101951.03;;;6.26;87.16
73101;BME280;61288;53.446;-2.266;2023-04-07T08:23:16;101953.16;;;7.28;83.67
73101;BME280;61288;53.446;-2.266;2023-04-07T08:25:41;101952.13;;;8.48;77.81
73101;BME280;61288;53.446;-2.266;2023-04-07T08:28:07;101952.13;;;9.72;74.02
73101;BME280;61288;53.446;-2.266;2023-04-07T08:30:32;101959.50;;;10.86;69.15
73101;BME280;61288;53.446;-2.266;2023-04-07T08:32:58;101958.75;;;11.20;65.64
73101;BME280;61288;53.446;-2.266;2023-04-07T08:35:23;101956.03;;;11.26;65.13
73101;BME280;61288;53.446;-2.266;2023-04-07T08:37:49;101957.50;;;11.37;64.01
73101;BME280;61288;53.446;-2.266;2023-04-07T08:40:15;101951.53;;;11.69;63.46
73101;BME280;61288;53.446;-2.266;2023-04-07T08:42:46;101947.94;;;12.08;62.23
73101;BME280;61288;53.446;-2.266;2023-04-07T08:45:13;101958.88;;;12.53;62.24
73101;BME280;61288;53.446;-2.266;2023-04-07T08:47:41;101959.06;;;12.77;59.58
73101;BME280;61288;53.446;-2.266;2023-04-07T08:50:09;101963.97;;;13.16;58.83
73101;BME280;61288;53.446;-2.266;2023-04-07T08:52:52;101967.16;;;13.53;57.86
73101;BME280;61288;53.446;-2.266;2023-04-07T08:55:18;101969.06;;;13.48;58.37
73101;BME280;61288;53.446;-2.266;2023-04-07T08:57:45;101969.13;;;13.46;57.92
73101;BME280;61288;53.446;-2.266;2023-04-07T09:00:12;101970.03;;;13.45;57.68
73101;BME280;61288;53.446;-2.266;2023-04-07T09:02:40;101962.81;;;13.80;57.87
73101;BME280;61288;53.446;-2.266;2023-04-07T09:05:08;101957.44;;;14.10;53.47
73101;BME280;61288;53.446;-2.266;2023-04-07T09:07:35;101956.59;;;14.08;55.09
73101;BME280;61288;53.446;-2.266;2023-04-07T09:10:02;101955.94;;;13.78;53.92
73101;BME280;61288;53.446;-2.266;2023-04-07T09:12:28;101955.41;;;13.39;54.91
73101;BME280;61288;53.446;-2.266;2023-04-07T09:14:54;101952.22;;;13.58;55.05
73101;BME280;61288;53.446;-2.266;2023-04-07T09:17:20;101957.34;;;13.61;55.65
73101;BME280;61288;53.446;-2.266;2023-04-07T09:19:48;101960.50;;;13.44;54.25
73101;BME280;61288;53.446;-2.266;2023-04-07T09:22:14;101954.09;;;13.54;54.56
73101;BME280;61288;53.446;-2.266;2023-04-07T09:24:40;101956.25;;;13.94;53.59
73101;BME280;61288;53.446;-2.266;2023-04-07T09:27:14;101956.09;;;13.98;53.42
73101;BME280;61288;53.446;-2.266;2023-04-07T09:29:42;101951.44;;;14.32;52.39
73101;BME280;61288;53.446;-2.266;2023-04-07T09:32:08;101950.53;;;14.33;53.02
73101;BME280;61288;53.446;-2.266;2023-04-07T09:34:38;101952.94;;;15.09;51.94
73101;BME280;61288;53.446;-2.266;2023-04-07T09:37:05;101953.06;;;15.92;49.50
73101;BME280;61288;53.446;-2.266;2023-04-07T09:39:31;101951.81;;;16.41;47.44
73101;BME280;61288;53.446;-2.266;2023-04-07T09:41:57;101955.44;;;16.17;44.60
73101;BME280;61288;53.446;-2.266;2023-04-07T09:44:24;101955.88;;;15.86;44.96
73101;BME280;61288;53.446;-2.266;2023-04-07T09:46:52;101943.03;;;16.42;45.97
73101;BME280;61288;53.446;-2.266;2023-04-07T09:49:19;101956.91;;;16.63;42.73
73101;BME280;61288;53.446;-2.266;2023-04-07T09:52:17;101956.59;;;16.88;43.45
73101;BME280;61288;53.446;-2.266;2023-04-07T09:54:45;101956.16;;;17.17;41.89
73101;BME280;61288;53.446;-2.266;2023-04-07T09:57:12;101956.31;;;17.14;41.31
73101;BME280;61288;53.446;-2.266;2023-04-07T09:59:39;101957.09;;;16.97;42.73
73101;BME280;61288;53.446;-2.266;2023-04-07T10:02:11;101959.34;;;17.41;42.06
73101;BME280;61288;53.446;-2.266;2023-04-07T10:04:37;101952.47;;;17.39;40.34
73101;BME280;61288;53.446;-2.266;2023-04-07T10:07:05;101953.13;;;17.79;41.85
73101;BME280;61288;53.446;-2.266;2023-04-07T10:09:31;101944.28;;;17.98;41.05
73101;BME280;61288;53.446;-2.266;2023-04-07T10:11:58;101950.78;;;17.90;38.42
73101;BME280;61288;53.446;-2.266;2023-04-07T10:14:30;101951.41;;;17.78;38.23
73101;BME280;61288;53.446;-2.266;2023-04-07T10:16:56;101952.97;;;18.50;38.17
73101;BME280;61288;53.446;-2.266;2023-04-07T10:19:23;101946.22;;;18.12;38.70
73101;BME280;61288;53.446;-2.266;2023-04-07T10:21:50;101940.81;;;18.15;37.00
73101;BME280;61288;53.446;-2.266;2023-04-07T10:27:06;101945.25;;;17.61;38.27
73101;BME280;61288;53.446;-2.266;2023-04-07T10:29:41;101944.09;;;17.50;37.88
73101;BME280;61288;53.446;-2.266;2023-04-07T10:32:08;101944.41;;;17.26;37.91
73101;BME280;61288;53.446;-2.266;2023-04-07T10:37:15;101942.56;;;17.63;38.92
73101;BME280;61288;53.446;-2.266;2023-04-07T10:39:48;101943.69;;;17.93;39.92
73101;BME280;61288;53.446;-2.266;2023-04-07T10:45:07;101939.09;;;18.80;38.01
73101;BME280;61288;53.446;-2.266;2023-04-07T10:47:43;101934.50;;;18.99;38.18
73101;BME280;61288;53.446;-2.266;2023-04-07T10:50:22;101932.31;;;18.91;37.25
73101;BME280;61288;53.446;-2.266;2023-04-07T10:53:04;101933.84;;;18.47;36.39
73101;BME280;61288;53.446;-2.266;2023-04-07T10:55:31;101935.09;;;17.55;38.99
73101;BME280;61288;53.446;-2.266;2023-04-07T10:58:14;101938.38;;;17.76;39.43
73101;BME280;61288;53.446;-2.266;2023-04-07T11:00:40;101929.03;;;17.71;38.44
73101;BME280;61288;53.446;-2.266;2023-04-07T11:03:12;101930.75;;;18.39;39.20
73101;BME280;61288;53.446;-2.266;2023-04-07T11:05:41;101929.53;;;17.79;36.99
73101;BME280;61288;53.446;-2.266;2023-04-07T11:08:07;101931.97;;;17.82;36.52
73101;BME280;61288;53.446;-2.266;2023-04-07T11:10:34;101911.06;;;17.98;36.74
73101;BME280;61288;53.446;-2.266;2023-04-07T11:13:00;101919.66;;;17.49;36.93
73101;BME280;61288;53.446;-2.266;2023-04-07T11:15:26;101926.69;;;17.31;36.86
73101;BME280;61288;53.446;-2.266;2023-04-07T11:18:12;101919.34;;;17.55;39.46
73101;BME280;61288;53.446;-2.266;2023-04-07T11:20:42;101917.00;;;18.02;36.09
73101;BME280;61288;53.446;-2.266;2023-04-07T11:23:08;101905.88;;;17.45;36.02
73101;BME280;61288;53.446;-2.266;2023-04-07T11:25:34;101915.50;;;17.45;36.28
73101;BME280;61288;53.446;-2.266;2023-04-07T11:28:00;101915.56;;;17.43;36.39
73101;BME280;61288;53.446;-2.266;2023-04-07T11:30:27;101915.47;;;17.80;35.70
73101;BME280;61288;53.446;-2.266;2023-04-07T11:32:53;101915.66;;;17.59;36.82
73101;BME280;61288;53.446;-2.266;2023-04-07T11:35:18;101904.88;;;17.30;37.99
73101;BME280;61288;53.446;-2.266;2023-04-07T11:37:44;101909.28;;;17.30;39.75
73101;BME280;61288;53.446;-2.266;2023-04-07T11:40:10;101914.50;;;17.30;39.07
73101;BME280;61288;53.446;-2.266;2023-04-07T11:42:38;101906.25;;;17.38;37.37
73101;BME280;61288;53.446;-2.266;2023-04-07T11:45:15;101909.09;;;16.98;37.78
73101;BME280;61288;53.446;-2.266;2023-04-07T11:47:41;101905.84;;;16.54;36.02
73101;BME280;61288;53.446;-2.266;2023-04-07T11:50:07;101902.44;;;16.33;37.19
73101;BME280;61288;53.446;-2.266;2023-04-07T11:52:43;101907.97;;;16.27;37.33
73101;BME280;61288;53.446;-2.266;2023-04-07T11:55:19;101906.25;;;16.07;37.25
73101;BME280;61288;53.446;-2.266;2023-04-07T11:57:47;101901.53;;;16.53;36.17
73101;BME280;61288;53.446;-2.266;2023-04-07T12:00:13;101905.53;;;16.03;35.33
73101;BME280;61288;53.446;-2.266;2023-04-07T12:02:40;101911.84;;;16.18;36.83
73101;BME280;61288;53.446;-2.266;2023-04-07T12:05:06;101900.53;;;16.37;36.31
73101;BME280;61288;53.446;-2.266;2023-04-07T12:07:37;101901.25;;;16.59;39.49
73101;BME280;61288;53.446;-2.266;2023-04-07T12:10:23;101904.88;;;16.38;37.43
73101;BME280;61288;53.446;-2.266;2023-04-07T12:12:52;101904.91;;;16.74;39.50
73101;BME280;61288;53.446;-2.266;2023-04-07T12:15:17;101914.56;;;17.11;36.79
73101;BME280;61288;53.446;-2.266;2023-04-07T12:17:44;101907.09;;;16.84;36.85
73101;BME280;61288;53.446;-2.266;2023-04-07T12:20:14;101905.63;;;16.40;36.08
73101;BME280;61288;53.446;-2.266;2023-04-07T12:22:40;101905.03;;;16.14;37.79
73101;BME280;61288;53.446;-2.266;2023-04-07T12:25:06;101900.13;;;16.46;37.35
73101;BME280;61288;53.446;-2.266;2023-04-07T12:27:32;101900.16;;;16.83;37.39
73101;BME280;61288;53.446;-2.266;2023-04-07T12:29:57;101901.91;;;17.01;37.52
73101;BME280;61288;53.446;-2.266;2023-04-07T12:32:23;101889.75;;;17.00;35.83
73101;BME280;61288;53.446;-2.266;2023-04-07T12:34:49;101890.66;;;16.99;36.93
73101;BME280;61288;53.446;-2.266;2023-04-07T12:37:15;101885.91;;;17.25;35.06
73101;BME280;61288;53.446;-2.266;2023-04-07T12:39:41;101894.84;;;17.21;35.74
73101;BME280;61288;53.446;-2.266;2023-04-07T12:42:07;101890.09;;;16.93;34.93
73101;BME280;61288;53.446;-2.266;2023-04-07T12:44:39;101895.91;;;16.99;36.67
73101;BME280;61288;53.446;-2.266;2023-04-07T12:47:05;101895.31;;;17.12;37.48
73101;BME280;61288;53.446;-2.266;2023-04-07T12:49:30;101899.63;;;17.48;35.69
73101;BME280;61288;53.446;-2.266;2023-04-07T12:51:56;101895.56;;;17.94;34.63
73101;BME280;61288;53.446;-2.266;2023-04-07T12:54:22;101899.03;;;18.28;34.22
73101;BME280;61288;53.446;-2.266;2023-04-07T12:56:48;101890.50;;;18.40;32.89
73101;BME280;61288;53.446;-2.266;2023-04-07T12:59:13;101882.44;;;18.27;32.30